Date,TemperatureHighF,TemperatureAvgF,TemperatureLowF,DewpointHighF,DewpointAvgF,DewpointLowF,HumidityHigh,HumidityAvg,HumidityLow,PressureMaxIn,PressureMinIn,WindSpeedMaxMPH,WindSpeedAvgMPH,GustSpeedMaxMPH,PrecipitationSumIn
2013-4-8,58,56,54,33,30,28,44,38,33,29.52,29.38,23,9,0,0.00
2013-4-9,71,58,46,27,21,13,46,26,12,29.72,29.52,16,3,0,0.00
2013-4-10,82,66,52,29,17,10,34,17,7,29.80,29.63,20,3,0,0.00
2013-4-11,75,63,49,46,35,25,68,37,19,29.68,29.44,12,2,0,0.00
2013-4-12,84,64,47,49,44,39,83,54,20,29.53,29.41,14,2,0,0.00
2013-4-13,72,61,49,50,47,44,81,63,39,29.56,29.48,15,4,0,0.00
2013-4-14,67,57,51,48,47,45,85,71,47,29.54,29.45,12,3,0,0.00
2013-4-15,59,54,49,47,45,41,82,72,58,29.55,29.49,19,6,0,0.00
2013-4-16,61,53,46,42,26,17,79,38,19,29.69,29.52,20,8,0,0.00
2013-4-17,68,55,42,25,18,11,50,25,13,29.86,29.69,18,3,0,0.00
2013-4-18,73,60,46,22,11,3,38,16,7,29.94,29.81,22,4,0,0.00
2013-4-19,85,67,49,26,15,6,28,15,6,29.88,29.66,14,4,0,0.00
2013-4-20,88,72,54,36,28,19,37,21,8,29.67,29.54,16,3,0,0.00
2013-4-21,85,70,54,39,33,27,45,28,13,29.67,29.60,12,2,0,0.00
2013-4-22,78,64,50,48,40,33,78,44,26,29.66,29.53,12,2,0,0.00
2013-4-23,86,65,48,49,40,17,90,53,9,29.64,29.50,16,3,0,0.00
2013-4-24,65,56,52,51,48,46,87,76,58,29.66,29.55,16,4,0,0.00
2013-4-25,70,60,53,47,44,42,81,60,36,29.79,29.63,16,4,0,0.00
2013-4-26,82,63,46,46,43,40,81,52,23,29.84,29.75,12,2,0,0.00
2013-4-27,90,72,53,45,40,32,66,36,14,29.82,29.66,15,3,0,0.00
2013-4-28,90,74,58,49,41,35,48,33,19,29.66,29.50,18,3,0,0.00
2013-4-29,89,69,50,51,44,30,79,46,13,29.55,29.43,14,2,0,0.00
2013-4-30,72,61,53,51,50,46,90,69,41,29.56,29.46,13,3,0,0.00
2013-5-1,86,71,52,50,22,-9,85,35,3,29.73,29.55,20,5,0,0.00
2013-5-2,83,75,65,8,-2,-8,10,5,3,29.87,29.72,29,8,0,0.00
2013-5-3,92,75,59,20,7,-3,17,8,4,29.74,29.47,18,3,0,0.00
2013-5-4,77,65,55,50,34,12,75,35,14,29.48,29.38,16,5,0,0.00
2013-5-5,59,55,53,48,46,44,82,73,58,29.61,29.47,20,6,0,0.00
2013-5-6,62,56,51,50,46,42,88,72,51,29.70,29.55,18,7,0,0.43
2013-5-7,65,57,51,48,45,42,87,66,46,29.74,29.67,16,3,0,0.03
2013-5-8,68,59,53,48,45,43,77,61,45,29.78,29.71,14,3,0,0.00
2013-5-9,74,61,47,51,47,43,83,61,38,29.78,29.67,12,2,0,0.00
2013-5-10,88,72,54,51,46,36,80,46,16,29.75,29.66,17,2,0,0.00
2013-5-11,94,78,60,47,41,31,54,30,11,29.73,29.64,17,3,0,0.00
2013-5-12,98,83,66,44,40,30,44,24,10,29.73,29.59,14,3,0,0.00
2013-5-13,98,83,66,45,37,29,37,22,9,29.66,29.55,16,3,0,0.00
2013-5-14,83,72,60,48,39,30,59,32,16,29.63,29.55,17,3,0,0.00
2013-5-15,78,66,54,52,48,42,72,54,37,29.68,29.59,13,2,0,0.00
2013-5-16,75,63,51,52,50,46,84,64,39,29.64,29.54,15,3,0,0.00
2013-5-17,72,62,52,52,50,43,85,65,38,29.65,29.57,18,3,0,0.00
2013-5-18,80,67,50,49,41,23,82,45,16,29.71,29.62,15,4,0,0.00
2013-5-19,88,72,53,48,31,23,44,24,11,29.66,29.52,14,3,0,0.00
2013-5-20,93,76,60,44,30,21,34,20,8,29.62,29.53,18,4,0,0.00
2013-5-21,85,72,59,52,43,34,63,37,17,29.59,29.48,13,3,0,0.00
2013-5-22,75,64,53,52,48,36,84,59,33,29.51,29.43,22,3,0,0.00
2013-5-23,70,61,50,49,42,24,70,49,31,29.62,29.49,17,5,0,0.00
2013-5-24,72,60,46,48,44,36,74,56,35,29.65,29.59,19,4,0,0.00
2013-5-25,72,60,48,48,45,41,83,59,33,29.68,29.64,17,3,0,0.39
2013-5-26,75,63,49,51,46,39,81,58,33,29.70,29.65,14,3,0,0.00
2013-5-27,83,68,52,49,39,22,78,42,14,29.68,29.53,18,5,0,0.00
2013-5-28,79,69,60,47,44,38,58,41,25,29.54,29.44,22,9,0,0.00
2013-5-29,89,74,57,47,41,28,59,34,14,29.49,29.37,19,6,0,0.00
2013-5-30,90,75,58,53,43,33,58,35,16,29.53,29.44,11,3,0,0.00
2013-5-31,91,75,57,56,47,34,61,40,18,29.56,29.46,14,2,0,0.00
2013-6-1,100,82,62,55,43,23,63,33,7,29.52,29.38,13,3,0,0.00
2013-6-2,85,70,58,58,54,47,83,59,31,29.47,29.40,18,3,0,0.00
2013-6-3,80,66,57,54,53,51,86,65,39,29.56,29.46,17,4,0,0.00
2013-6-4,81,66,56,54,52,46,88,63,31,29.64,29.55,17,4,0,0.00
2013-6-5,83,66,52,53,50,43,85,62,28,29.66,29.55,22,4,0,0.00
2013-6-6,84,69,55,55,52,49,81,58,34,29.62,29.50,19,3,0,0.00
2013-6-7,88,69,55,56,53,50,85,60,32,29.57,29.41,12,3,0,0.00
2013-6-8,89,71,56,57,53,43,86,59,21,29.55,29.44,17,3,0,0.00
2013-6-9,84,68,55,58,52,44,92,63,25,29.59,29.51,17,3,0,0.00
2013-6-10,78,66,55,53,50,45,89,60,32,29.62,29.53,13,5,0,0.00
2013-6-11,92,72,56,52,48,38,78,47,16,29.63,29.54,11,2,0,0.00
2013-6-12,83,70,58,56,52,48,77,55,30,29.65,29.57,13,3,0,0.00
2013-6-13,87,70,55,55,50,41,89,54,23,29.67,29.55,12,3,0,0.00
2013-6-14,85,70,55,51,43,34,70,39,20,29.58,29.49,17,4,0,0.00
2013-6-15,80,66,51,53,48,38,87,58,25,29.64,29.54,18,4,0,0.00
2013-6-16,87,70,52,52,47,41,73,47,23,29.69,29.59,13,3,0,0.00
2013-6-17,91,77,59,46,40,34,49,29,17,29.63,29.52,15,4,0,0.00
2013-6-18,85,73,59,51,43,34,60,36,20,29.55,29.47,15,3,0,0.00
2013-6-19,87,72,56,50,30,14,62,28,7,29.55,29.46,17,5,0,0.00
2013-6-20,87,73,53,48,32,22,41,24,12,29.53,29.46,15,3,0,0.00
2013-6-21,84,73,58,48,39,24,50,30,17,29.54,29.49,13,2,0,0.00
2013-6-22,86,72,58,52,47,40,62,43,28,29.56,29.46,16,3,0,0.00
2013-6-23,78,66,56,54,51,47,76,59,36,29.53,29.45,20,3,0,0.00
2013-6-24,70,62,56,55,53,52,86,73,58,29.63,29.49,14,3,0,0.00
2013-6-25,84,70,55,57,55,51,87,61,38,29.66,29.56,16,3,0,0.00
2013-6-26,92,79,63,56,55,51,73,46,27,29.63,29.57,19,3,0,0.00
2013-6-27,97,83,68,56,53,49,61,39,20,29.68,29.62,17,3,0,0.00
2013-6-28,100,85,69,57,53,49,58,36,18,29.65,29.52,13,3,0,0.00
2013-6-29,107,89,72,55,50,42,51,29,12,29.54,29.40,13,3,0,0.00
2013-6-30,106,89,76,59,51,43,52,29,12,29.45,29.37,12,2,0,0.00
2013-7-1,96,82,69,58,53,44,65,41,18,29.55,29.43,16,3,0,0.00
2013-7-2,99,82,69,57,52,44,53,37,17,29.61,29.53,12,3,0,0.00
2013-7-3,97,81,68,58,52,48,61,40,21,29.57,29.44,13,2,0,0.00
2013-7-4,95,80,66,55,52,44,65,40,22,29.48,29.39,11,2,0,0.00
2013-7-5,92,76,64,57,54,49,72,49,26,29.50,29.40,17,2,0,0.00
2013-7-6,95,74,64,58,56,48,78,56,20,29.48,29.38,13,2,0,0.00
2013-7-7,96,79,62,57,51,34,80,44,12,29.52,29.43,17,4,0,0.00
2013-7-8,100,80,63,52,44,32,59,33,10,29.59,29.51,18,3,0,0.00
2013-7-9,102,86,70,50,41,29,36,22,8,29.63,29.58,13,3,0,0.00
2013-7-10,88,77,70,57,51,44,54,41,32,29.64,29.56,10,1,0,0.00
2013-7-11,79,72,67,61,58,53,75,60,46,29.64,29.54,10,2,0,0.02
2013-7-12,90,75,64,61,56,49,83,55,26,29.60,29.51,12,2,0,0.00
2013-7-13,96,79,63,53,49,39,59,38,14,29.62,29.50,16,3,0,0.00
2013-7-14,98,82,64,54,49,41,65,36,15,29.59,29.47,18,3,0,0.00
2013-7-15,94,78,65,52,45,30,58,35,12,29.52,29.45,17,4,0,0.00
2013-7-16,91,74,56,46,38,20,61,32,9,29.64,29.52,13,3,0,0.00
2013-7-17,93,77,58,40,35,27,44,24,10,29.70,29.62,20,4,0,0.00
2013-7-18,96,80,63,46,37,28,41,23,12,29.65,29.51,20,3,0,0.00
2013-7-19,97,79,63,52,46,38,54,33,14,29.56,29.46,15,3,0,0.00
2013-7-20,90,75,62,62,56,49,74,55,33,29.55,29.43,13,2,0,0.00
2013-7-21,83,74,66,60,58,55,73,59,39,29.61,29.47,12,2,0,0.00
2013-7-22,86,76,67,62,59,56,82,58,36,29.64,29.56,16,3,0,0.01
2013-7-23,90,75,64,59,55,52,74,53,28,29.67,29.58,17,3,0,0.00
2013-7-24,94,77,64,57,53,49,70,47,25,29.64,29.53,15,3,0,0.00
2013-7-25,94,79,63,56,54,51,71,46,24,29.66,29.57,15,4,0,0.00
2013-7-26,90,78,69,59,57,54,67,50,30,29.75,29.63,12,2,0,0.00
2013-7-27,93,78,66,58,56,51,72,49,26,29.67,29.51,17,3,0,0.00
2013-7-28,88,73,61,57,53,43,78,53,21,29.57,29.50,14,2,0,0.00
2013-7-29,85,69,56,56,50,42,89,57,23,29.69,29.57,14,3,0,0.00
2013-7-30,87,72,58,54,49,40,79,50,21,29.76,29.68,19,3,0,0.00
2013-7-31,82,68,55,55,51,45,78,56,34,29.75,29.65,18,4,0,0.00
2013-8-1,88,71,53,54,51,46,83,54,26,29.69,29.55,15,3,0,0.00
2013-8-2,85,71,55,54,50,42,84,53,23,29.62,29.56,18,4,0,0.00
2013-8-3,87,71,55,54,49,40,78,51,19,29.66,29.57,9,2,0,0.00
2013-8-4,91,72,56,52,44,22,75,43,8,29.67,29.59,14,2,0,0.00
2013-8-5,91,72,57,48,39,26,57,34,10,29.66,29.58,15,2,0,0.00
2013-8-6,87,71,55,51,40,22,60,37,10,29.69,29.61,12,2,0,0.00
2013-8-7,87,70,54,50,45,32,66,44,16,29.72,29.63,15,3,0,0.00
2013-8-8,84,69,56,50,46,38,71,48,21,29.66,29.57,16,3,0,0.00
2013-8-9,83,69,55,50,42,31,65,42,16,29.63,29.57,15,3,0,0.00
2013-8-10,84,69,55,51,47,41,66,46,26,29.68,29.61,15,3,0,0.00
2013-8-11,88,71,56,52,49,46,77,49,25,29.66,29.55,14,3,0,0.00
2013-8-12,91,74,58,54,49,44,67,45,22,29.62,29.54,19,3,0,0.00
2013-8-13,94,76,59,54,50,42,75,44,16,29.62,29.53,13,3,0,0.00
2013-8-14,100,81,62,50,42,29,46,28,8,29.58,29.48,15,3,0,0.00
2013-8-15,95,80,65,53,44,36,48,30,15,29.58,29.53,14,2,0,0.00
2013-8-16,96,81,66,52,45,38,53,31,15,29.61,29.55,15,3,0,0.00
2013-8-17,97,81,65,50,43,32,45,28,12,29.61,29.46,18,3,0,0.00
2013-8-18,97,80,66,55,45,34,54,31,14,29.55,29.44,18,3,0,0.00
2013-8-19,94,82,70,56,53,45,58,38,22,29.55,29.48,19,5,0,0.00
2013-8-20,93,77,63,54,48,30,70,41,11,29.58,29.51,14,3,0,0.00
2013-8-21,96,79,62,52,42,25,59,33,8,29.60,29.50,16,3,0,0.00
2013-8-22,97,82,65,48,39,28,48,25,9,29.59,29.48,14,3,0,0.00
2013-8-23,94,78,62,44,37,29,45,25,10,29.53,29.41,16,2,0,0.00
2013-8-24,92,77,60,42,36,27,42,25,10,29.54,29.42,19,3,0,0.00
2013-8-25,92,76,60,53,36,22,40,25,10,29.60,29.51,16,2,0,0.00
2013-8-26,91,78,64,57,46,33,41,32,20,29.62,29.49,13,2,0,0.00
2013-8-27,91,80,70,60,56,51,65,46,30,29.53,29.43,16,2,0,0.00
2013-8-28,94,81,68,58,54,47,65,42,20,29.56,29.45,18,4,0,0.00
2013-8-29,102,84,69,54,49,43,56,33,16,29.62,29.52,11,2,0,0.00
2013-8-30,93,83,73,65,56,44,60,41,29,29.64,29.57,16,3,0,0.00
2013-8-31,91,82,75,65,64,62,69,55,38,29.63,29.53,17,3,0,0.00
2013-9-1,91,80,71,65,63,59,78,58,36,29.60,29.51,19,4,0,0.00
2013-9-2,94,81,69,62,59,50,75,50,26,29.59,29.47,16,3,0,0.00
2013-9-3,96,83,70,60,54,49,63,40,21,29.57,29.48,12,3,0,0.00
2013-9-4,99,84,70,55,51,47,57,36,17,29.60,29.49,18,3,0,0.00
2013-9-5,99,85,70,51,48,42,46,29,17,29.57,29.48,17,2,0,0.00
2013-9-6,101,85,70,49,45,41,44,27,14,29.56,29.44,18,3,0,0.00
2013-9-7,99,83,68,47,41,32,42,24,12,29.56,29.44,13,2,0,0.00
2013-9-8,94,80,66,48,40,36,42,26,15,29.53,29.40,15,3,0,0.00
2013-9-9,92,77,66,53,46,36,59,35,18,29.47,29.38,15,3,0,0.00
2013-9-10,86,71,59,53,46,35,72,46,17,29.60,29.45,20,2,0,0.00
2013-9-11,86,70,57,55,50,42,74,52,23,29.66,29.58,15,2,0,0.00
2013-9-12,91,74,58,54,45,32,74,41,12,29.62,29.50,11,2,0,0.00
2013-9-13,96,79,64,49,43,38,45,30,17,29.51,29.33,14,2,0,0.00
2013-9-14,99,82,67,52,47,41,51,32,15,29.40,29.28,14,2,0,0.00
2013-9-15,99,82,67,50,44,33,45,30,11,29.43,29.34,14,3,0,0.00
2013-9-16,96,80,65,48,40,32,45,27,12,29.50,29.39,15,3,0,0.00
2013-9-17,85,72,57,49,43,33,59,38,16,29.48,29.38,18,3,0,0.00
2013-9-18,84,70,57,55,47,38,69,45,25,29.47,29.39,12,2,0,0.00
2013-9-19,94,73,57,56,48,23,77,49,9,29.48,29.38,16,2,0,0.00
2013-9-20,80,65,54,58,55,51,89,72,44,29.56,29.46,12,2,0,0.00
2013-9-21,77,64,58,56,53,48,85,68,36,29.60,29.45,20,3,0,0.00
2013-9-22,78,65,54,52,39,32,81,43,19,29.55,29.45,14,4,0,0.00
2013-9-23,93,74,60,38,35,31,44,26,12,29.58,29.49,12,2,0,0.00
2013-9-24,89,73,58,45,34,27,46,26,12,29.62,29.50,20,3,0,0.00
2013-9-25,74,64,55,54,48,40,77,57,42,29.50,29.36,15,4,0,0.00
2013-9-26,72,62,53,42,31,17,55,34,13,29.60,29.39,22,5,0,0.00
2013-9-27,78,66,53,29,22,17,39,21,10,29.71,29.59,20,4,0,0.00
2013-9-28,88,68,52,27,23,19,35,20,8,29.75,29.63,11,2,0,0.00
2013-9-29,88,70,53,34,24,15,31,20,7,29.77,29.63,10,2,0,0.00
2013-9-30,90,73,56,40,33,27,40,25,11,29.68,29.51,13,3,0,0.00
2013-10-1,83,69,56,52,44,37,70,42,22,29.60,29.53,12,2,0,0.00
2013-10-2,78,64,54,54,51,46,87,66,34,29.65,29.53,16,2,0,0.00
2013-10-3,76,62,50,53,48,39,89,62,29,29.61,29.48,13,3,0,0.00
2013-10-4,75,69,56,40,13,6,56,13,8,29.77,29.55,28,12,0,0.00
2013-10-5,80,72,67,19,15,9,15,11,7,29.88,29.76,25,8,0,0.00
2013-10-6,87,74,63,24,14,11,21,11,6,29.81,29.65,15,3,0,0.00
2013-10-7,84,68,56,33,20,12,40,18,8,29.68,29.56,16,2,0,0.00
2013-10-8,73,60,49,51,38,26,78,47,23,29.60,29.46,17,4,0,0.00
2013-10-9,57,53,48,50,45,37,84,73,53,29.49,29.36,20,7,0,0.14
2013-10-10,65,52,40,46,41,37,87,68,40,29.72,29.49,15,3,0,0.00
2013-10-11,75,58,43,47,41,33,87,60,22,29.74,29.63,10,2,0,0.00
2013-10-12,77,61,48,43,38,31,69,48,20,29.67,29.55,12,2,0,0.00
2013-10-13,70,57,46,49,45,40,87,66,39,29.71,29.59,14,2,0,0.00
2013-10-14,78,65,48,46,32,24,82,35,14,29.75,29.61,18,4,0,0.00
2013-10-15,78,67,55,29,24,21,35,21,13,29.69,29.58,16,3,0,0.00
2013-10-16,79,66,56,25,20,16,29,18,10,29.78,29.68,15,2,0,0.00
2013-10-17,83,64,49,32,24,19,40,24,11,29.75,29.59,12,1,0,0.00
2013-10-18,84,65,54,36,27,16,45,27,9,29.72,29.63,15,2,0,0.00
2013-10-19,89,70,56,31,22,14,32,19,7,29.73,29.61,11,1,0,0.00
2013-10-20,84,66,54,46,30,20,62,29,10,29.67,29.55,9,1,0,0.00
2013-10-21,88,66,50,47,35,25,55,37,10,29.67,29.55,13,1,0,0.00
2013-10-22,86,67,53,47,31,17,61,30,8,29.69,29.56,11,1,0,0.00
2013-10-23,79,62,51,51,40,24,87,48,25,29.65,29.53,11,2,0,0.00
2013-10-24,75,60,51,51,49,48,88,70,41,29.74,29.61,10,1,0,0.00
2013-10-25,81,62,44,49,44,36,90,58,20,29.81,29.69,10,1,0,0.00
2013-10-26,88,69,54,40,30,22,41,26,9,29.79,29.65,10,1,0,0.00
2013-10-27,80,64,55,51,35,22,82,38,13,29.66,29.45,15,3,0,0.00
2013-10-28,60,54,50,50,42,33,82,66,36,29.61,29.42,24,9,0,0.00
2013-10-29,60,52,44,45,41,37,85,68,44,29.70,29.60,14,3,0,0.00
2013-10-30,69,54,43,41,34,25,83,52,20,29.77,29.67,12,2,0,0.00
2013-10-31,74,60,45,36,27,17,64,34,14,29.81,29.70,15,2,0,0.00
2013-11-1,79,67,54,24,22,18,28,19,13,29.82,29.66,16,4,0,0.00
2013-11-2,80,64,52,35,26,21,45,26,12,29.70,29.54,14,2,0,0.00
2013-11-3,70,56,43,49,39,29,80,55,32,29.61,29.49,15,2,0,0.00
2013-11-4,69,55,45,47,36,24,87,52,26,29.68,29.47,15,2,0,0.03
2013-11-5,66,60,45,31,12,1,58,17,9,29.87,29.66,19,6,0,0.00
2013-11-6,74,64,57,10,6,2,15,10,7,29.94,29.83,18,4,0,0.00
2013-11-7,81,67,56,21,14,6,23,13,9,29.85,29.70,10,2,0,0.00
2013-11-8,80,62,50,41,24,15,53,26,10,29.73,29.61,7,1,0,0.00
2013-11-9,76,60,48,34,28,23,52,33,14,29.78,29.68,13,2,0,0.00
2013-11-10,81,60,48,42,26,8,54,32,7,29.85,29.71,4,0,0,0.00
2013-11-11,82,64,50,34,24,18,53,24,10,29.82,29.71,10,2,0,0.00
2013-11-12,80,68,57,37,22,17,31,18,10,29.88,29.78,7,1,0,0.00
2013-11-13,83,70,59,22,18,15,22,14,8,29.80,29.64,13,2,0,0.00
2013-11-14,86,70,58,28,24,20,30,18,10,29.67,29.42,10,1,0,0.00
2013-11-15,66,58,49,50,42,25,77,57,28,29.44,29.33,13,3,0,0.00
2013-11-16,60,55,52,49,46,43,80,70,55,29.61,29.41,22,4,0,0.00
2013-11-17,65,54,45,47,44,41,86,69,45,29.79,29.61,12,2,0,0.00
2013-11-18,67,54,44,48,44,39,87,71,40,29.84,29.72,13,2,0,0.00
2013-11-19,65,54,48,48,46,43,90,76,47,29.77,29.62,11,1,0,0.00
2013-11-20,61,55,49,50,48,45,88,77,58,29.65,29.55,16,2,0,0.00
2013-11-21,62,54,49,52,48,39,91,80,60,29.62,29.48,10,2,0,0.67
2013-11-22,49,47,46,39,36,34,68,64,60,29.71,29.59,26,10,0,0.00
2013-11-23,52,49,46,38,35,34,67,59,50,29.82,29.70,17,6,0,0.00
2013-11-24,61,53,44,39,36,31,77,55,34,29.91,29.79,15,4,0,0.00
2013-11-25,70,57,44,37,33,25,69,43,19,29.96,29.84,14,4,0,0.00
2013-11-26,68,60,50,37,33,28,50,37,24,29.91,29.76,17,4,0,0.00
2013-11-27,67,58,50,37,34,29,55,43,27,29.76,29.58,11,3,0,0.00
2013-11-28,66,55,46,39,35,31,65,48,28,29.76,29.58,15,2,0,0.00
2013-11-29,58,54,50,48,40,34,80,61,44,29.90,29.75,11,2,0,0.08
2013-11-30,67,58,48,39,35,30,67,44,26,29.91,29.79,15,3,0,0.00
2013-12-1,71,61,50,32,28,23,48,30,17,29.96,29.82,14,4,0,0.00
2013-12-2,75,60,48,32,28,21,47,31,14,29.85,29.59,9,1,0,0.00
2013-12-3,64,52,42,48,37,25,81,58,37,29.58,29.39,18,4,0,0.00
2013-12-4,53,44,37,24,16,11,53,34,19,29.66,29.45,17,3,0,0.00
2013-12-5,54,42,33,28,21,13,64,46,20,29.80,29.65,6,0,0,0.00
2013-12-6,54,42,31,36,28,20,73,60,38,29.88,29.77,13,2,0,0.00
2013-12-7,48,43,36,41,31,18,84,64,41,29.82,29.66,17,4,0,0.02
2013-12-8,51,38,28,20,15,8,69,42,24,29.93,29.80,10,2,0,0.00
2013-12-9,48,43,38,9,-4,-12,30,15,9,30.07,29.90,25,7,0,0.00
2013-12-10,54,45,40,4,-4,-11,20,13,10,30.03,29.83,20,6,0,0.00
2013-12-11,59,50,39,10,5,1,23,16,12,29.92,29.84,25,6,0,0.00
2013-12-12,66,54,42,24,13,9,45,22,11,29.92,29.80,14,2,0,0.00
2013-12-13,68,51,36,26,18,9,52,30,15,29.93,29.80,10,1,0,0.00
2013-12-14,65,60,51,16,13,8,21,16,12,30.02,29.88,23,6,0,0.00
2013-12-15,70,62,56,18,15,12,20,16,11,29.99,29.85,16,6,0,0.00
2013-12-16,74,66,60,19,17,15,19,15,11,29.88,29.77,17,5,0,0.00
2013-12-17,76,66,60,25,20,17,26,17,12,29.84,29.70,11,2,0,0.00
2013-12-18,70,61,52,48,32,20,82,39,18,29.72,29.49,13,3,0,0.00
2013-12-19,52,35,45,45,2,-100,85,56,71,29.51,29.39,22,-280,0,0.19
2013-12-20,58,35,40,32,-15,-100,55,25,22,29.65,29.45,13,-310,0,0.01
2013-12-21,59,46,36,40,33,19,83,61,43,29.78,29.60,10,1,0,0.00
2013-12-22,69,51,37,40,34,28,89,57,22,29.98,29.77,10,1,0,0.00
2013-12-23,67,59,46,28,27,25,49,30,22,30.02,29.92,15,4,0,0.00
2013-12-24,74,63,57,29,26,20,32,25,13,29.92,29.80,22,5,0,0.00
2013-12-25,69,64,59,24,15,3,24,15,9,29.96,29.87,16,4,0,0.00
2013-12-26,70,62,52,12,6,3,19,11,8,29.91,29.82,23,3,0,0.00
2013-12-27,74,62,55,16,7,2,20,12,7,29.89,29.74,12,3,0,0.00
2013-12-28,76,60,51,21,13,5,26,16,7,29.73,29.57,8,1,0,0.00
2013-12-29,67,61,52,12,4,-2,16,11,8,29.86,29.67,21,6,0,0.00
2013-12-30,74,57,46,17,6,-2,25,14,6,29.95,29.83,6,1,0,0.00
2013-12-31,74,56,43,21,13,7,27,19,9,29.90,29.74,9,1,0,0.00
2014-1-1,72,62,51,18,13,7,21,15,11,29.82,29.74,22,4,0,0.00
2014-1-2,73,62,52,22,19,16,29,20,13,29.82,29.69,9,1,0,0.00